Queen Of Nanaimo — VCNX — position and weather

sailwx.info

Track history (hours):
 
Tides and Currents Weather Stations Pressure Air Temp Water Temp Dewpoint Dewpoint Depression Visibility Wind Speed Wind Dir Waves Ship Positions

Queen Of Nanaimo

Last reported at 2017-Apr-27 05:16 UTC. Time now 2017-Apr-27 11:10 UTC.
Position N 48°51' W 123°27'.

Length 130 m; draft 4 m.

Type: Passenger vessel. MMSI: 316001254.

Date/timePositionNaut miles runAvg speedWind from/ knotsBaromVisibWave heightAir tempDewpointWater temp
2017-Apr-27 05:16N 48°51' W 123°27'3 9.9
2017-Apr-27 04:59N 48°49' W 123°24'4 7.4
2017-Apr-27 04:30N 48°48' W 123°19'3 4.6
2017-Apr-27 03:55N 48°51' W 123°20'2 3.2
2017-Apr-27 03:18N 48°53' W 123°18'413.0
2017-Apr-27 03:00N 48°55' W 123°15'612.9
2017-Apr-27 02:30N 48°60' W 123°08'0 0.9
2017-Apr-27 02:00N 49°00' W 123°08'0 0.0
2017-Apr-27 01:30N 49°00' W 123°08'510.9
2017-Apr-27 01:00N 48°56' W 123°13'5 7.0
2017-Apr-27 00:15N 48°52' W 123°18'2 7.2
2017-Apr-27 00:00N 48°51' W 123°20'1 1.1
2017-Apr-26 23:30N 48°50' W 123°20'3 5.1
2017-Apr-26 23:00N 48°48' W 123°19'5 8.7
2017-Apr-26 22:28N 48°50' W 123°25'1 2.1
2017-Apr-26 21:50N 48°51' W 123°27'0 0.0
2017-Apr-26 21:23N 48°51' W 123°27'0 0.0
2017-Apr-26 20:57N 48°51' W 123°27'0 0.0
2017-Apr-26 20:14N 48°51' W 123°27'1 4.4
2017-Apr-26 19:56N 48°50' W 123°25'511.1
2017-Apr-26 19:30N 48°48' W 123°19'3 5.5
2017-Apr-26 19:01N 48°51' W 123°20'1 2.5
2017-Apr-26 18:29N 48°52' W 123°19'4 6.8
2017-Apr-26 17:51N 48°55' W 123°15'513.6
2017-Apr-26 17:30N 48°59' W 123°10'2 4.6
2017-Apr-26 17:00N 49°00' W 123°08'0 0.0
2017-Apr-26 16:29N 49°00' W 123°08'5 9.5
2017-Apr-26 15:59N 48°56' W 123°11'6 7.6
2017-Apr-26 15:11N 48°52' W 123°18'2 7.9
2017-Apr-26 14:59N 48°52' W 123°20'1 2.1
2017-Apr-26 14:30N 48°51' W 123°20'4 3.5
2017-Apr-26 13:29N 48°50' W 123°25'1 0.4
2017-Apr-26 10:08N 48°51' W 123°27'0 0.0
2017-Apr-26 09:39N 48°51' W 123°27'0 0.0
2017-Apr-26 05:30N 48°51' W 123°27'2 4.7
2017-Apr-26 05:00N 48°49' W 123°24'4 7.8
2017-Apr-26 04:30N 48°48' W 123°19'3 5.4
2017-Apr-26 04:00N 48°51' W 123°20'2 3.2
2017-Apr-26 03:24N 48°53' W 123°19'3 6.9
2017-Apr-26 02:59N 48°55' W 123°16'613.0
2017-Apr-26 02:30N 48°59' W 123°09'1 2.9
2017-Apr-26 02:00N 49°00' W 123°08'0 0.1
2017-Apr-26 01:30N 49°00' W 123°08'612.6
2017-Apr-26 01:00N 48°55' W 123°13'5 6.3
2017-Apr-26 00:15N 48°52' W 123°18'1 5.9
2017-Apr-26 00:00N 48°51' W 123°20'0 0.3
2017-Apr-25 23:30N 48°51' W 123°20'3 5.5
2017-Apr-25 23:00N 48°48' W 123°19'5 8.6
2017-Apr-25 22:27N 48°50' W 123°25'1 1.9
2017-Apr-25 21:49N 48°51' W 123°27'0 0.0
2017-Apr-25 21:29N 48°51' W 123°27'0 0.0
2017-Apr-25 21:00N 48°51' W 123°27'0 0.0
2017-Apr-25 20:15N 48°51' W 123°27'1 2.1
2017-Apr-25 20:00N 48°51' W 123°26'611.1
2017-Apr-25 19:30N 48°48' W 123°19'3 5.6
2017-Apr-25 19:00N 48°51' W 123°20'1 2.1
2017-Apr-25 18:28N 48°52' W 123°19'1 2.3
2017-Apr-25 18:00N 48°53' W 123°18'713.4
2017-Apr-25 17:29N 48°58' W 123°12'4 7.3
2017-Apr-25 16:59N 49°00' W 123°08'0 0.0
2017-Apr-25 16:29N 49°00' W 123°08'5 9.5
2017-Apr-25 16:00N 48°56' W 123°12'6 7.5
2017-Apr-25 15:11N 48°52' W 123°18'2 8.6
2017-Apr-25 15:00N 48°52' W 123°20'4 3.7
2017-Apr-25 14:00N 48°48' W 123°19'4 9.0
2017-Apr-25 13:30N 48°50' W 123°25'2 2.8
2017-Apr-25 12:57N 48°51' W 123°27'0 0.0
2017-Apr-25 05:16N 48°51' W 123°27'3 9.1
2017-Apr-25 04:54N 48°49' W 123°23'3 7.6
2017-Apr-25 04:30N 48°48' W 123°19'3 5.3
2017-Apr-25 04:00N 48°51' W 123°20'2 3.7
2017-Apr-25 03:28N 48°53' W 123°18'2 4.8
2017-Apr-25 03:00N 48°54' W 123°17'714.3
2017-Apr-25 02:30N 48°59' W 123°09'1 2.4
2017-Apr-25 02:00N 49°00' W 123°08'0 0.0
2017-Apr-25 01:30N 49°00' W 123°08'611.4
2017-Apr-25 01:00N 48°56' W 123°13'5 7.4
2017-Apr-25 00:19N 48°52' W 123°18'2 5.7
2017-Apr-25 00:00N 48°51' W 123°20'0 0.5
2017-Apr-24 23:29N 48°51' W 123°20'3 5.4
2017-Apr-24 22:59N 48°48' W 123°19'5 8.4
2017-Apr-24 22:27N 48°50' W 123°25'2 0.8
2017-Apr-24 20:36N 48°51' W 123°27'0 0.1
2017-Apr-24 20:08N 48°51' W 123°27'1 5.6
2017-Apr-24 19:59N 48°51' W 123°26'511.2
2017-Apr-24 19:31N 48°48' W 123°19'3 5.8
2017-Apr-24 19:00N 48°51' W 123°20'1 2.0
2017-Apr-24 18:30N 48°52' W 123°19'3 4.3
2017-Apr-24 17:56N 48°54' W 123°17'613.0
2017-Apr-24 17:26N 48°59' W 123°11'3 6.2
2017-Apr-24 17:00N 49°00' W 123°08'0 0.0
2017-Apr-24 16:30N 49°00' W 123°08'4 8.2
2017-Apr-24 16:00N 48°57' W 123°11'613.2
2017-Apr-24 15:30N 48°53' W 123°18'2 3.0
2017-Apr-24 14:56N 48°52' W 123°21'1 2.5
2017-Apr-24 14:31N 48°51' W 123°20'3 3.3
2017-Apr-24 13:30N 48°50' W 123°25'2 2.9
2017-Apr-24 12:51N 48°51' W 123°27'0 0.0
2017-Apr-24 06:26N 48°51' W 123°27'1 3.2
2017-Apr-24 06:00N 48°51' W 123°25'510.6
2017-Apr-24 05:30N 48°53' W 123°18'713.3
2017-Apr-24 05:00N 48°59' W 123°13'4 7.0
2017-Apr-24 04:30N 49°00' W 123°08'510.0
2017-Apr-24 04:00N 48°56' W 123°12'713.2
2017-Apr-24 03:27N 48°52' W 123°21'1 2.4
2017-Apr-24 02:58N 48°51' W 123°20'4 9.3
2017-Apr-24 02:30N 48°54' W 123°16'714.5
2017-Apr-24 02:00N 48°60' W 123°09'1 2.0
2017-Apr-24 01:29N 49°00' W 123°08'1 1.1
2017-Apr-24 01:00N 48°60' W 123°08'714.5
2017-Apr-24 00:30N 48°54' W 123°15'3 5.8
2017-Apr-24 00:00N 48°53' W 123°19'2 3.8
2017-Apr-23 23:30N 48°51' W 123°20'1 1.4
2017-Apr-23 23:00N 48°51' W 123°21'4 7.4
2017-Apr-23 22:30N 48°51' W 123°27'0 0.0
2017-Apr-23 21:55N 48°51' W 123°27'0 0.0
2017-Apr-23 21:14N 48°51' W 123°27'1 2.4
2017-Apr-23 20:59N 48°51' W 123°26'511.5
2017-Apr-23 20:31N 48°48' W 123°19'3 5.3
2017-Apr-23 20:00N 48°51' W 123°20'1 2.4
2017-Apr-23 19:27N 48°52' W 123°19'1 2.3
2017-Apr-23 19:00N 48°53' W 123°19'713.3
2017-Apr-23 18:30N 48°58' W 123°12'4 8.1
2017-Apr-23 18:00N 49°00' W 123°08'0 0.0
2017-Apr-23 17:30N 49°00' W 123°08'4 7.4
2017-Apr-23 17:01N 48°57' W 123°11'713.5
2017-Apr-23 16:30N 48°53' W 123°18'1 2.4
2017-Apr-23 16:00N 48°51' W 123°19'1 1.8
2017-Apr-23 15:29N 48°51' W 123°20'3 5.7
2017-Apr-23 15:00N 48°48' W 123°19'6 5.4
2017-Apr-23 13:53N 48°51' W 123°27'0 0.0
2017-Apr-23 12:42N 48°51' W 123°27'0 0.0
2017-Apr-23 06:21N 48°51' W 123°27'1 4.0
2017-Apr-23 06:00N 48°51' W 123°25'3 6.7
2017-Apr-23 05:30N 48°51' W 123°20'2 3.3
2017-Apr-23 04:55N 48°53' W 123°19'511.9
2017-Apr-23 04:30N 48°57' W 123°14'611.6
2017-Apr-23 04:01N 49°00' W 123°08'0 0.0
2017-Apr-23 03:30N 49°00' W 123°08'0 0.0
2017-Apr-23 03:01N 49°00' W 123°08'0 0.0
2017-Apr-23 02:31N 49°00' W 123°08'0 0.0
2017-Apr-23 02:00N 49°00' W 123°08'0 0.6
2017-Apr-23 01:30N 49°00' W 123°08'714.4
2017-Apr-23 01:00N 48°55' W 123°15'3 5.7
2017-Apr-23 00:28N 48°53' W 123°19'2 3.6
2017-Apr-22 23:56N 48°51' W 123°20'3 6.1
2017-Apr-22 23:30N 48°48' W 123°20'2 3.5
2017-Apr-22 23:00N 48°48' W 123°22'4 8.3
2017-Apr-22 22:30N 48°51' W 123°27'0 0.0
2017-Apr-22 20:43N 48°51' W 123°27'1 5.4
2017-Apr-22 20:30N 48°51' W 123°25'510.7
2017-Apr-22 20:00N 48°53' W 123°18'714.1
2017-Apr-22 19:30N 48°58' W 123°11'3 6.2
2017-Apr-22 19:00N 49°00' W 123°08'4 7.9
2017-Apr-22 18:30N 48°57' W 123°11'714.4
2017-Apr-22 18:00N 48°52' W 123°18'1 2.3
2017-Apr-22 17:28N 48°51' W 123°20'1 2.5
2017-Apr-22 17:00N 48°52' W 123°20'1 2.6
2017-Apr-22 16:29N 48°53' W 123°19'611.5
2017-Apr-22 16:00N 48°57' W 123°14'510.5
2017-Apr-22 15:30N 49°00' W 123°08'0 0.0
2017-Apr-22 15:00N 49°00' W 123°08'510.8
2017-Apr-22 14:31N 48°56' W 123°12'1110.4
2017-Apr-22 13:30N 48°51' W 123°27'0 0.1
2017-Apr-22 13:00N 48°51' W 123°27'0 0.0
2017-Apr-22 12:07N 48°51' W 123°27'0 0.0
2017-Apr-22 12:00N 48°51' W 123°27'0 0.0
2017-Apr-22 11:28N 48°51' W 123°27'0 0.0
2017-Apr-22 10:10N 48°51' W 123°27'0 0.0
2017-Apr-22 09:58N 48°51' W 123°27'0 0.0
2017-Apr-22 09:15N 48°51' W 123°27'0 0.0
2017-Apr-22 07:43N 48°51' W 123°27'0 0.0
2017-Apr-22 07:20N 48°51' W 123°27'0 0.0
2017-Apr-22 05:58N 48°51' W 123°27'0 1.0
2017-Apr-22 05:30N 48°51' W 123°26'611.3
2017-Apr-22 05:01N 48°48' W 123°19'1 1.7
2017-Apr-22 04:30N 48°48' W 123°20'2 4.3
2017-Apr-22 03:59N 48°51' W 123°20'2 4.1
2017-Apr-22 03:30N 48°53' W 123°19'4 8.4
2017-Apr-22 03:00N 48°56' W 123°15'612.5
2017-Apr-22 02:30N 49°00' W 123°08'0 0.5
2017-Apr-22 02:00N 49°00' W 123°08'0 0.0
2017-Apr-22 01:30N 49°00' W 123°08'510.9
2017-Apr-22 01:00N 48°56' W 123°13'510.3
2017-Apr-22 00:29N 48°53' W 123°19'2 4.0
2017-Apr-22 00:00N 48°51' W 123°20'0 0.9
2017-Apr-21 23:30N 48°51' W 123°20'3 5.4
2017-Apr-21 23:00N 48°48' W 123°19'4 7.5
2017-Apr-21 22:30N 48°49' W 123°24'2 5.0
2017-Apr-21 22:00N 48°51' W 123°27'0 0.0
2017-Apr-21 21:30N 48°51' W 123°27'0 0.0
2017-Apr-21 20:58N 48°51' W 123°27'0 0.0
2017-Apr-21 20:28N 48°51' W 123°27'2 5.0
2017-Apr-21 20:00N 48°49' W 123°24'4 7.9
2017-Apr-21 19:30N 48°48' W 123°19'3 5.4
2017-Apr-21 19:00N 48°51' W 123°20'2 3.9
2017-Apr-21 18:30N 48°52' W 123°18'1 2.5
2017-Apr-21 18:00N 48°54' W 123°17'714.0
2017-Apr-21 17:30N 48°59' W 123°11'2 4.8
2017-Apr-21 17:00N 49°00' W 123°08'0 0.0
2017-Apr-21 16:30N 49°00' W 123°08'3 6.4
2017-Apr-21 16:00N 48°58' W 123°10'714.3
2017-Apr-21 15:30N 48°53' W 123°18'2 3.1
2017-Apr-21 14:59N 48°52' W 123°20'1 1.7
2017-Apr-21 14:29N 48°51' W 123°20'3 3.5
2017-Apr-21 13:30N 48°50' W 123°25'2 0.3
2017-Apr-21 05:42N 48°51' W 123°27'0 0.0
2017-Apr-21 05:30N 48°51' W 123°27'611.5
2017-Apr-21 05:00N 48°48' W 123°20'2 4.2
2017-Apr-21 04:30N 48°50' W 123°20'1 2.6
2017-Apr-21 04:00N 48°51' W 123°21'2 3.6
2017-Apr-21 03:29N 48°53' W 123°19'4 7.8
2017-Apr-21 03:00N 48°56' W 123°15'611.8
2017-Apr-21 02:30N 48°60' W 123°09'1 2.1
2017-Apr-21 02:00N 49°00' W 123°08'0 0.9
2017-Apr-21 01:30N 48°60' W 123°08'713.3
2017-Apr-21 01:00N 48°55' W 123°14'4 7.5
2017-Apr-21 00:30N 48°53' W 123°19'2 3.9
2017-Apr-21 00:00N 48°51' W 123°20'0 0.2
2017-Apr-20 23:29N 48°51' W 123°20'3 5.4
2017-Apr-20 22:59N 48°48' W 123°19'4 8.9
2017-Apr-20 22:31N 48°50' W 123°25'2 3.3
2017-Apr-20 21:57N 48°51' W 123°27'0 0.0
2017-Apr-20 20:18N 48°51' W 123°27'1 1.8
2017-Apr-20 20:00N 48°51' W 123°26'611.1
2017-Apr-20 19:30N 48°48' W 123°19'3 5.5
2017-Apr-20 19:00N 48°51' W 123°20'1 2.1
2017-Apr-20 18:30N 48°52' W 123°21'2 3.3
2017-Apr-20 18:01N 48°53' W 123°19'713.7
2017-Apr-20 17:30N 48°58' W 123°12'4 7.2
2017-Apr-20 16:59N 49°00' W 123°08'0 0.0
2017-Apr-20 16:30N 49°00' W 123°08'3 6.4
2017-Apr-20 16:01N 48°58' W 123°10'714.4
2017-Apr-20 15:30N 48°53' W 123°18'2 3.2
2017-Apr-20 14:58N 48°52' W 123°20'4 3.8
2017-Apr-20 14:00N 48°48' W 123°19'4 8.3
2017-Apr-20 13:29N 48°50' W 123°25'2 3.6
2017-Apr-20 12:59N 48°51' W 123°27'0 0.0
2017-Apr-20 12:30N 48°51' W 123°27'0 0.0
2017-Apr-20 11:21N 48°51' W 123°27'0 0.0
2017-Apr-20 05:37N 48°51' W 123°27'0 0.9
2017-Apr-20 05:23N 48°51' W 123°27'512.5
2017-Apr-20 05:00N 48°48' W 123°21'1 2.0
2017-Apr-20 04:30N 48°49' W 123°20'2 3.8
2017-Apr-20 04:00N 48°51' W 123°20'2 3.8
2017-Apr-20 03:29N 48°53' W 123°19'4 8.1
2017-Apr-20 03:01N 48°56' W 123°15'713.1
2017-Apr-20 02:30N 49°00' W 123°08'0 0.5
2017-Apr-20 02:00N 49°00' W 123°08'0 0.7
2017-Apr-20 01:30N 49°00' W 123°08'713.2
2017-Apr-20 01:00N 48°55' W 123°14'4 6.4
2017-Apr-20 00:23N 48°53' W 123°19'2 4.8
2017-Apr-20 00:00N 48°51' W 123°20'0 0.6
2017-Apr-19 23:29N 48°51' W 123°20'3 5.6
2017-Apr-19 23:00N 48°48' W 123°19'4 8.5
2017-Apr-19 22:30N 48°50' W 123°25'2 2.5
2017-Apr-19 21:46N 48°51' W 123°27'0 0.0
2017-Apr-19 21:06N 48°51' W 123°27'0 0.0
2017-Apr-19 20:59N 48°51' W 123°27'0 0.0
2017-Apr-19 20:29N 48°51' W 123°27'1 2.3
2017-Apr-19 19:56N 48°50' W 123°25'511.2
2017-Apr-19 19:30N 48°48' W 123°19'3 5.5
2017-Apr-19 19:00N 48°51' W 123°20'1 2.1
2017-Apr-19 18:30N 48°52' W 123°19'2 4.6
2017-Apr-19 18:00N 48°54' W 123°17'713.9
2017-Apr-19 17:30N 48°59' W 123°10'2 5.0
2017-Apr-19 17:01N 49°00' W 123°08'0 0.0
2017-Apr-19 16:28N 49°00' W 123°08'3 7.2
2017-Apr-19 16:00N 48°58' W 123°10'714.3
2017-Apr-19 15:30N 48°53' W 123°18'1 2.9
2017-Apr-19 15:00N 48°51' W 123°20'1 1.5
2017-Apr-19 14:30N 48°51' W 123°20'3 3.3
2017-Apr-19 13:30N 48°50' W 123°25'2 2.6
2017-Apr-19 12:46N 48°51' W 123°27'0 0.0
2017-Apr-19 12:30N 48°51' W 123°27'0 0.0
2017-Apr-19 11:59N 48°51' W 123°27'0 0.0
2017-Apr-19 11:29N 48°51' W 123°27'0 0.0
2017-Apr-19 11:00N 48°51' W 123°27'0 0.0
2017-Apr-19 10:17N 48°51' W 123°27'0 0.0
2017-Apr-19 09:51N 48°51' W 123°27'0 0.0
2017-Apr-19 09:24N 48°51' W 123°27'0 0.0
2017-Apr-19 09:00N 48°51' W 123°27'0 0.0
2017-Apr-19 07:28N 48°51' W 123°27'0 0.0
2017-Apr-19 06:55N 48°51' W 123°27'0 0.0
2017-Apr-19 05:53N 48°51' W 123°27'0 0.0
2017-Apr-19 05:29N 48°51' W 123°27'3 6.8
2017-Apr-19 05:01N 48°49' W 123°24'3 5.8
2017-Apr-19 04:30N 48°48' W 123°19'3 5.5
2017-Apr-19 03:58N 48°51' W 123°20'2 3.3
2017-Apr-19 03:23N 48°53' W 123°19'4 9.9
2017-Apr-19 03:00N 48°56' W 123°15'611.5
2017-Apr-19 02:30N 48°60' W 123°09'1 2.4
2017-Apr-19 02:00N 49°00' W 123°08'2 4.4
2017-Apr-19 01:30N 48°58' W 123°09'815.0
2017-Apr-19 01:00N 48°53' W 123°18'1 2.1
2017-Apr-19 00:30N 48°53' W 123°19'2 3.7
2017-Apr-18 23:58N 48°51' W 123°20'1 2.9
2017-Apr-18 23:30N 48°49' W 123°20'2 3.3
2017-Apr-18 23:00N 48°48' W 123°19'5 9.4
2017-Apr-18 22:30N 48°50' W 123°25'1 0.7
2017-Apr-18 20:26N 48°51' W 123°27'1 1.6
2017-Apr-18 20:00N 48°51' W 123°26'510.7
2017-Apr-18 19:30N 48°48' W 123°19'3 5.7
2017-Apr-18 19:00N 48°51' W 123°20'2 3.6
2017-Apr-18 18:29N 48°52' W 123°18'2 4.1
2017-Apr-18 18:00N 48°54' W 123°17'713.8
2017-Apr-18 17:30N 48°59' W 123°10'2 3.6
2017-Apr-18 17:00N 49°00' W 123°08'0 0.0
2017-Apr-18 16:30N 49°00' W 123°08'713.7
2017-Apr-18 16:00N 48°55' W 123°14'4 6.6
2017-Apr-18 15:25N 48°53' W 123°19'2 4.8
2017-Apr-18 15:00N 48°51' W 123°20'1 2.7
2017-Apr-18 14:30N 48°49' W 123°20'3 3.4
2017-Apr-18 13:30N 48°50' W 123°25'1 2.4
2017-Apr-18 13:00N 48°51' W 123°27'0 0.0
2017-Apr-18 06:50N 48°51' W 123°27'1 3.4
2017-Apr-18 06:30N 48°51' W 123°25'612.5
2017-Apr-18 06:00N 48°54' W 123°17'714.8
2017-Apr-18 05:30N 48°59' W 123°10'2 3.3
2017-Apr-18 05:00N 49°00' W 123°08'4 8.3
2017-Apr-18 04:30N 48°57' W 123°11'714.9
2017-Apr-18 04:01N 48°51' W 123°19'1 1.8
2017-Apr-18 03:30N 48°51' W 123°20'0 0.7
2017-Apr-18 03:00N 48°51' W 123°20'510.5
2017-Apr-18 02:31N 48°55' W 123°16'714.2
2017-Apr-18 02:00N 49°00' W 123°08'0 0.7
2017-Apr-18 01:30N 49°00' W 123°08'2 4.9
2017-Apr-18 01:00N 48°58' W 123°10'815.0
2017-Apr-18 00:30N 48°53' W 123°18'1 1.5
2017-Apr-18 00:00N 48°53' W 123°19'2 3.2
2017-Apr-17 23:23N 48°51' W 123°20'2 4.2
2017-Apr-17 23:00N 48°51' W 123°22'3 6.4
2017-Apr-17 22:30N 48°51' W 123°27'0 0.0
2017-Apr-17 22:00N 48°51' W 123°27'0 0.0
2017-Apr-17 20:40N 48°51' W 123°27'0 0.0
2017-Apr-17 20:28N 48°51' W 123°27'0 0.8
2017-Apr-17 20:00N 48°51' W 123°26'611.4
2017-Apr-17 19:31N 48°48' W 123°19'3 5.3
2017-Apr-17 19:00N 48°50' W 123°20'1 1.6
2017-Apr-17 18:31N 48°51' W 123°21'2 4.3
2017-Apr-17 18:00N 48°53' W 123°18'714.5
2017-Apr-17 17:31N 48°58' W 123°11'3 6.4
2017-Apr-17 17:00N 49°00' W 123°08'0 0.0
2017-Apr-17 16:30N 49°00' W 123°08'510.8
2017-Apr-17 16:00N 48°56' W 123°13'510.8
2017-Apr-17 15:31N 48°53' W 123°19'1 2.9
2017-Apr-17 15:00N 48°52' W 123°21'4 3.8
2017-Apr-17 14:01N 48°48' W 123°19'5 9.7
2017-Apr-17 13:28N 48°51' W 123°26'1 1.2
2017-Apr-17 12:51N 48°51' W 123°27'0 0.0
2017-Apr-17 06:14N 48°51' W 123°27'1 1.8
2017-Apr-17 05:56N 48°51' W 123°26'511.9
2017-Apr-17 05:30N 48°52' W 123°18'  
Track history (hours):
 
Tides and Currents Weather Stations Pressure Air Temp Water Temp Dewpoint Dewpoint Depression Visibility Wind Speed Wind Dir Waves Ship Positions

Queen Of Nanaimo

Last reported at 2017-Apr-27 05:16 UTC. Time now 2017-Apr-27 11:10 UTC.
Position N 48°51' W 123°27'.

Length 130 m; draft 4 m.

Type: Passenger vessel. MMSI: 316001254.

Date/timePositionNaut miles runAvg speedWind from/ knotsBaromVisibWave heightAir tempDewpointWater temp
2017-Apr-27 05:16N 48°51' W 123°27'3 9.9
2017-Apr-27 04:59N 48°49' W 123°24'4 7.4
2017-Apr-27 04:30N 48°48' W 123°19'3 4.6
2017-Apr-27 03:55N 48°51' W 123°20'2 3.2
2017-Apr-27 03:18N 48°53' W 123°18'413.0
2017-Apr-27 03:00N 48°55' W 123°15'612.9
2017-Apr-27 02:30N 48°60' W 123°08'0 0.9
2017-Apr-27 02:00N 49°00' W 123°08'0 0.0
2017-Apr-27 01:30N 49°00' W 123°08'510.9
2017-Apr-27 01:00N 48°56' W 123°13'5 7.0
2017-Apr-27 00:15N 48°52' W 123°18'2 7.2
2017-Apr-27 00:00N 48°51' W 123°20'1 1.1
2017-Apr-26 23:30N 48°50' W 123°20'3 5.1
2017-Apr-26 23:00N 48°48' W 123°19'5 8.7
2017-Apr-26 22:28N 48°50' W 123°25'1 2.1
2017-Apr-26 21:50N 48°51' W 123°27'0 0.0
2017-Apr-26 21:23N 48°51' W 123°27'0 0.0
2017-Apr-26 20:57N 48°51' W 123°27'0 0.0
2017-Apr-26 20:14N 48°51' W 123°27'1 4.4
2017-Apr-26 19:56N 48°50' W 123°25'511.1
2017-Apr-26 19:30N 48°48' W 123°19'3 5.5
2017-Apr-26 19:01N 48°51' W 123°20'1 2.5
2017-Apr-26 18:29N 48°52' W 123°19'4 6.8
2017-Apr-26 17:51N 48°55' W 123°15'513.6
2017-Apr-26 17:30N 48°59' W 123°10'2 4.6
2017-Apr-26 17:00N 49°00' W 123°08'0 0.0
2017-Apr-26 16:29N 49°00' W 123°08'5 9.5
2017-Apr-26 15:59N 48°56' W 123°11'6 7.6
2017-Apr-26 15:11N 48°52' W 123°18'2 7.9
2017-Apr-26 14:59N 48°52' W 123°20'1 2.1
2017-Apr-26 14:30N 48°51' W 123°20'4 3.5
2017-Apr-26 13:29N 48°50' W 123°25'1 0.4
2017-Apr-26 10:08N 48°51' W 123°27'0 0.0
2017-Apr-26 09:39N 48°51' W 123°27'0 0.0
2017-Apr-26 05:30N 48°51' W 123°27'2 4.7
2017-Apr-26 05:00N 48°49' W 123°24'4 7.8
2017-Apr-26 04:30N 48°48' W 123°19'3 5.4
2017-Apr-26 04:00N 48°51' W 123°20'2 3.2
2017-Apr-26 03:24N 48°53' W 123°19'3 6.9
2017-Apr-26 02:59N 48°55' W 123°16'613.0
2017-Apr-26 02:30N 48°59' W 123°09'1 2.9
2017-Apr-26 02:00N 49°00' W 123°08'0 0.1
2017-Apr-26 01:30N 49°00' W 123°08'612.6
2017-Apr-26 01:00N 48°55' W 123°13'5 6.3
2017-Apr-26 00:15N 48°52' W 123°18'1 5.9
2017-Apr-26 00:00N 48°51' W 123°20'0 0.3
2017-Apr-25 23:30N 48°51' W 123°20'3 5.5
2017-Apr-25 23:00N 48°48' W 123°19'5 8.6
2017-Apr-25 22:27N 48°50' W 123°25'1 1.9
2017-Apr-25 21:49N 48°51' W 123°27'0 0.0
2017-Apr-25 21:29N 48°51' W 123°27'0 0.0
2017-Apr-25 21:00N 48°51' W 123°27'0 0.0
2017-Apr-25 20:15N 48°51' W 123°27'1 2.1
2017-Apr-25 20:00N 48°51' W 123°26'611.1
2017-Apr-25 19:30N 48°48' W 123°19'3 5.6
2017-Apr-25 19:00N 48°51' W 123°20'1 2.1
2017-Apr-25 18:28N 48°52' W 123°19'1 2.3
2017-Apr-25 18:00N 48°53' W 123°18'713.4
2017-Apr-25 17:29N 48°58' W 123°12'4 7.3
2017-Apr-25 16:59N 49°00' W 123°08'0 0.0
2017-Apr-25 16:29N 49°00' W 123°08'5 9.5
2017-Apr-25 16:00N 48°56' W 123°12'6 7.5
2017-Apr-25 15:11N 48°52' W 123°18'2 8.6
2017-Apr-25 15:00N 48°52' W 123°20'4 3.7
2017-Apr-25 14:00N 48°48' W 123°19'4 9.0
2017-Apr-25 13:30N 48°50' W 123°25'2 2.8
2017-Apr-25 12:57N 48°51' W 123°27'0 0.0
2017-Apr-25 05:16N 48°51' W 123°27'3 9.1
2017-Apr-25 04:54N 48°49' W 123°23'3 7.6
2017-Apr-25 04:30N 48°48' W 123°19'3 5.3
2017-Apr-25 04:00N 48°51' W 123°20'2 3.7
2017-Apr-25 03:28N 48°53' W 123°18'2 4.8
2017-Apr-25 03:00N 48°54' W 123°17'714.3
2017-Apr-25 02:30N 48°59' W 123°09'1 2.4
2017-Apr-25 02:00N 49°00' W 123°08'0 0.0
2017-Apr-25 01:30N 49°00' W 123°08'611.4
2017-Apr-25 01:00N 48°56' W 123°13'5 7.4
2017-Apr-25 00:19N 48°52' W 123°18'2 5.7
2017-Apr-25 00:00N 48°51' W 123°20'0 0.5
2017-Apr-24 23:29N 48°51' W 123°20'3 5.4
2017-Apr-24 22:59N 48°48' W 123°19'5 8.4
2017-Apr-24 22:27N 48°50' W 123°25'2 0.8
2017-Apr-24 20:36N 48°51' W 123°27'0 0.1
2017-Apr-24 20:08N 48°51' W 123°27'1 5.6
2017-Apr-24 19:59N 48°51' W 123°26'511.2
2017-Apr-24 19:31N 48°48' W 123°19'3 5.8
2017-Apr-24 19:00N 48°51' W 123°20'1 2.0
2017-Apr-24 18:30N 48°52' W 123°19'3 4.3
2017-Apr-24 17:56N 48°54' W 123°17'613.0
2017-Apr-24 17:26N 48°59' W 123°11'3 6.2
2017-Apr-24 17:00N 49°00' W 123°08'0 0.0
2017-Apr-24 16:30N 49°00' W 123°08'4 8.2
2017-Apr-24 16:00N 48°57' W 123°11'613.2
2017-Apr-24 15:30N 48°53' W 123°18'2 3.0
2017-Apr-24 14:56N 48°52' W 123°21'1 2.5
2017-Apr-24 14:31N 48°51' W 123°20'3 3.3
2017-Apr-24 13:30N 48°50' W 123°25'2 2.9
2017-Apr-24 12:51N 48°51' W 123°27'0 0.0
2017-Apr-24 06:26N 48°51' W 123°27'1 3.2
2017-Apr-24 06:00N 48°51' W 123°25'510.6
2017-Apr-24 05:30N 48°53' W 123°18'713.3
2017-Apr-24 05:00N 48°59' W 123°13'4 7.0
2017-Apr-24 04:30N 49°00' W 123°08'510.0
2017-Apr-24 04:00N 48°56' W 123°12'713.2
2017-Apr-24 03:27N 48°52' W 123°21'1 2.4
2017-Apr-24 02:58N 48°51' W 123°20'4 9.3
2017-Apr-24 02:30N 48°54' W 123°16'714.5
2017-Apr-24 02:00N 48°60' W 123°09'1 2.0
2017-Apr-24 01:29N 49°00' W 123°08'1 1.1
2017-Apr-24 01:00N 48°60' W 123°08'714.5
2017-Apr-24 00:30N 48°54' W 123°15'3 5.8
2017-Apr-24 00:00N 48°53' W 123°19'2 3.8
2017-Apr-23 23:30N 48°51' W 123°20'1 1.4
2017-Apr-23 23:00N 48°51' W 123°21'4 7.4
2017-Apr-23 22:30N 48°51' W 123°27'0 0.0
2017-Apr-23 21:55N 48°51' W 123°27'0 0.0
2017-Apr-23 21:14N 48°51' W 123°27'1 2.4
2017-Apr-23 20:59N 48°51' W 123°26'511.5
2017-Apr-23 20:31N 48°48' W 123°19'3 5.3
2017-Apr-23 20:00N 48°51' W 123°20'1 2.4
2017-Apr-23 19:27N 48°52' W 123°19'1 2.3
2017-Apr-23 19:00N 48°53' W 123°19'713.3
2017-Apr-23 18:30N 48°58' W 123°12'4 8.1
2017-Apr-23 18:00N 49°00' W 123°08'0 0.0
2017-Apr-23 17:30N 49°00' W 123°08'4 7.4
2017-Apr-23 17:01N 48°57' W 123°11'713.5
2017-Apr-23 16:30N 48°53' W 123°18'1 2.4
2017-Apr-23 16:00N 48°51' W 123°19'1 1.8
2017-Apr-23 15:29N 48°51' W 123°20'3 5.7
2017-Apr-23 15:00N 48°48' W 123°19'6 5.4
2017-Apr-23 13:53N 48°51' W 123°27'0 0.0
2017-Apr-23 12:42N 48°51' W 123°27'0 0.0
2017-Apr-23 06:21N 48°51' W 123°27'1 4.0
2017-Apr-23 06:00N 48°51' W 123°25'3 6.7
2017-Apr-23 05:30N 48°51' W 123°20'2 3.3
2017-Apr-23 04:55N 48°53' W 123°19'511.9
2017-Apr-23 04:30N 48°57' W 123°14'611.6
2017-Apr-23 04:01N 49°00' W 123°08'0 0.0
2017-Apr-23 03:30N 49°00' W 123°08'0 0.0
2017-Apr-23 03:01N 49°00' W 123°08'0 0.0
2017-Apr-23 02:31N 49°00' W 123°08'0 0.0
2017-Apr-23 02:00N 49°00' W 123°08'0 0.6
2017-Apr-23 01:30N 49°00' W 123°08'714.4
2017-Apr-23 01:00N 48°55' W 123°15'3 5.7
2017-Apr-23 00:28N 48°53' W 123°19'2 3.6
2017-Apr-22 23:56N 48°51' W 123°20'3 6.1
2017-Apr-22 23:30N 48°48' W 123°20'2 3.5
2017-Apr-22 23:00N 48°48' W 123°22'4 8.3
2017-Apr-22 22:30N 48°51' W 123°27'0 0.0
2017-Apr-22 20:43N 48°51' W 123°27'1 5.4
2017-Apr-22 20:30N 48°51' W 123°25'510.7
2017-Apr-22 20:00N 48°53' W 123°18'714.1
2017-Apr-22 19:30N 48°58' W 123°11'3 6.2
2017-Apr-22 19:00N 49°00' W 123°08'4 7.9
2017-Apr-22 18:30N 48°57' W 123°11'714.4
2017-Apr-22 18:00N 48°52' W 123°18'1 2.3
2017-Apr-22 17:28N 48°51' W 123°20'1 2.5
2017-Apr-22 17:00N 48°52' W 123°20'1 2.6
2017-Apr-22 16:29N 48°53' W 123°19'611.5
2017-Apr-22 16:00N 48°57' W 123°14'510.5
2017-Apr-22 15:30N 49°00' W 123°08'0 0.0
2017-Apr-22 15:00N 49°00' W 123°08'510.8
2017-Apr-22 14:31N 48°56' W 123°12'1110.4
2017-Apr-22 13:30N 48°51' W 123°27'0 0.1
2017-Apr-22 13:00N 48°51' W 123°27'0 0.0
2017-Apr-22 12:07N 48°51' W 123°27'0 0.0
2017-Apr-22 12:00N 48°51' W 123°27'0 0.0
2017-Apr-22 11:28N 48°51' W 123°27'0 0.0
2017-Apr-22 10:10N 48°51' W 123°27'0 0.0
2017-Apr-22 09:58N 48°51' W 123°27'0 0.0
2017-Apr-22 09:15N 48°51' W 123°27'0 0.0
2017-Apr-22 07:43N 48°51' W 123°27'0 0.0
2017-Apr-22 07:20N 48°51' W 123°27'0 0.0
2017-Apr-22 05:58N 48°51' W 123°27'0 1.0
2017-Apr-22 05:30N 48°51' W 123°26'611.3
2017-Apr-22 05:01N 48°48' W 123°19'1 1.7
2017-Apr-22 04:30N 48°48' W 123°20'2 4.3
2017-Apr-22 03:59N 48°51' W 123°20'2 4.1
2017-Apr-22 03:30N 48°53' W 123°19'4 8.4
2017-Apr-22 03:00N 48°56' W 123°15'612.5
2017-Apr-22 02:30N 49°00' W 123°08'0 0.5
2017-Apr-22 02:00N 49°00' W 123°08'0 0.0
2017-Apr-22 01:30N 49°00' W 123°08'510.9
2017-Apr-22 01:00N 48°56' W 123°13'510.3
2017-Apr-22 00:29N 48°53' W 123°19'2 4.0
2017-Apr-22 00:00N 48°51' W 123°20'0 0.9
2017-Apr-21 23:30N 48°51' W 123°20'3 5.4
2017-Apr-21 23:00N 48°48' W 123°19'4 7.5
2017-Apr-21 22:30N 48°49' W 123°24'2 5.0
2017-Apr-21 22:00N 48°51' W 123°27'0 0.0
2017-Apr-21 21:30N 48°51' W 123°27'0 0.0
2017-Apr-21 20:58N 48°51' W 123°27'0 0.0
2017-Apr-21 20:28N 48°51' W 123°27'2 5.0
2017-Apr-21 20:00N 48°49' W 123°24'4 7.9
2017-Apr-21 19:30N 48°48' W 123°19'3 5.4
2017-Apr-21 19:00N 48°51' W 123°20'2 3.9
2017-Apr-21 18:30N 48°52' W 123°18'1 2.5
2017-Apr-21 18:00N 48°54' W 123°17'714.0
2017-Apr-21 17:30N 48°59' W 123°11'2 4.8
2017-Apr-21 17:00N 49°00' W 123°08'0 0.0
2017-Apr-21 16:30N 49°00' W 123°08'3 6.4
2017-Apr-21 16:00N 48°58' W 123°10'714.3
2017-Apr-21 15:30N 48°53' W 123°18'2 3.1
2017-Apr-21 14:59N 48°52' W 123°20'1 1.7
2017-Apr-21 14:29N 48°51' W 123°20'3 3.5
2017-Apr-21 13:30N 48°50' W 123°25'2 0.3
2017-Apr-21 05:42N 48°51' W 123°27'0 0.0
2017-Apr-21 05:30N 48°51' W 123°27'611.5
2017-Apr-21 05:00N 48°48' W 123°20'2 4.2
2017-Apr-21 04:30N 48°50' W 123°20'1 2.6
2017-Apr-21 04:00N 48°51' W 123°21'2 3.6
2017-Apr-21 03:29N 48°53' W 123°19'4 7.8
2017-Apr-21 03:00N 48°56' W 123°15'611.8
2017-Apr-21 02:30N 48°60' W 123°09'1 2.1
2017-Apr-21 02:00N 49°00' W 123°08'0 0.9
2017-Apr-21 01:30N 48°60' W 123°08'713.3
2017-Apr-21 01:00N 48°55' W 123°14'4 7.5
2017-Apr-21 00:30N 48°53' W 123°19'2 3.9
2017-Apr-21 00:00N 48°51' W 123°20'0 0.2
2017-Apr-20 23:29N 48°51' W 123°20'3 5.4
2017-Apr-20 22:59N 48°48' W 123°19'4 8.9
2017-Apr-20 22:31N 48°50' W 123°25'2 3.3
2017-Apr-20 21:57N 48°51' W 123°27'0 0.0
2017-Apr-20 20:18N 48°51' W 123°27'1 1.8
2017-Apr-20 20:00N 48°51' W 123°26'611.1
2017-Apr-20 19:30N 48°48' W 123°19'3 5.5
2017-Apr-20 19:00N 48°51' W 123°20'1 2.1
2017-Apr-20 18:30N 48°52' W 123°21'2 3.3
2017-Apr-20 18:01N 48°53' W 123°19'713.7
2017-Apr-20 17:30N 48°58' W 123°12'4 7.2
2017-Apr-20 16:59N 49°00' W 123°08'0 0.0
2017-Apr-20 16:30N 49°00' W 123°08'3 6.4
2017-Apr-20 16:01N 48°58' W 123°10'714.4
2017-Apr-20 15:30N 48°53' W 123°18'2 3.2
2017-Apr-20 14:58N 48°52' W 123°20'4 3.8
2017-Apr-20 14:00N 48°48' W 123°19'4 8.3
2017-Apr-20 13:29N 48°50' W 123°25'2 3.6
2017-Apr-20 12:59N 48°51' W 123°27'0 0.0
2017-Apr-20 12:30N 48°51' W 123°27'0 0.0
2017-Apr-20 11:21N 48°51' W 123°27'0 0.0
2017-Apr-20 05:37N 48°51' W 123°27'0 0.9
2017-Apr-20 05:23N 48°51' W 123°27'512.5
2017-Apr-20 05:00N 48°48' W 123°21'1 2.0
2017-Apr-20 04:30N 48°49' W 123°20'2 3.8
2017-Apr-20 04:00N 48°51' W 123°20'2 3.8
2017-Apr-20 03:29N 48°53' W 123°19'4 8.1
2017-Apr-20 03:01N 48°56' W 123°15'713.1
2017-Apr-20 02:30N 49°00' W 123°08'0 0.5
2017-Apr-20 02:00N 49°00' W 123°08'0 0.7
2017-Apr-20 01:30N 49°00' W 123°08'713.2
2017-Apr-20 01:00N 48°55' W 123°14'4 6.4
2017-Apr-20 00:23N 48°53' W 123°19'2 4.8
2017-Apr-20 00:00N 48°51' W 123°20'0 0.6
2017-Apr-19 23:29N 48°51' W 123°20'3 5.6
2017-Apr-19 23:00N 48°48' W 123°19'4 8.5
2017-Apr-19 22:30N 48°50' W 123°25'2 2.5
2017-Apr-19 21:46N 48°51' W 123°27'0 0.0
2017-Apr-19 21:06N 48°51' W 123°27'0 0.0
2017-Apr-19 20:59N 48°51' W 123°27'0 0.0
2017-Apr-19 20:29N 48°51' W 123°27'1 2.3
2017-Apr-19 19:56N 48°50' W 123°25'511.2
2017-Apr-19 19:30N 48°48' W 123°19'3 5.5
2017-Apr-19 19:00N 48°51' W 123°20'1 2.1
2017-Apr-19 18:30N 48°52' W 123°19'2 4.6
2017-Apr-19 18:00N 48°54' W 123°17'713.9
2017-Apr-19 17:30N 48°59' W 123°10'2 5.0
2017-Apr-19 17:01N 49°00' W 123°08'0 0.0
2017-Apr-19 16:28N 49°00' W 123°08'3 7.2
2017-Apr-19 16:00N 48°58' W 123°10'714.3
2017-Apr-19 15:30N 48°53' W 123°18'1 2.9
2017-Apr-19 15:00N 48°51' W 123°20'1 1.5
2017-Apr-19 14:30N 48°51' W 123°20'3 3.3
2017-Apr-19 13:30N 48°50' W 123°25'2 2.6
2017-Apr-19 12:46N 48°51' W 123°27'0 0.0
2017-Apr-19 12:30N 48°51' W 123°27'0 0.0
2017-Apr-19 11:59N 48°51' W 123°27'0 0.0
2017-Apr-19 11:29N 48°51' W 123°27'0 0.0
2017-Apr-19 11:00N 48°51' W 123°27'0 0.0
2017-Apr-19 10:17N 48°51' W 123°27'0 0.0
2017-Apr-19 09:51N 48°51' W 123°27'0 0.0
2017-Apr-19 09:24N 48°51' W 123°27'0 0.0
2017-Apr-19 09:00N 48°51' W 123°27'0 0.0
2017-Apr-19 07:28N 48°51' W 123°27'0 0.0
2017-Apr-19 06:55N 48°51' W 123°27'0 0.0
2017-Apr-19 05:53N 48°51' W 123°27'0 0.0
2017-Apr-19 05:29N 48°51' W 123°27'3 6.8
2017-Apr-19 05:01N 48°49' W 123°24'3 5.8
2017-Apr-19 04:30N 48°48' W 123°19'3 5.5
2017-Apr-19 03:58N 48°51' W 123°20'2 3.3
2017-Apr-19 03:23N 48°53' W 123°19'4 9.9
2017-Apr-19 03:00N 48°56' W 123°15'611.5
2017-Apr-19 02:30N 48°60' W 123°09'1 2.4
2017-Apr-19 02:00N 49°00' W 123°08'2 4.4
2017-Apr-19 01:30N 48°58' W 123°09'815.0
2017-Apr-19 01:00N 48°53' W 123°18'1 2.1
2017-Apr-19 00:30N 48°53' W 123°19'2 3.7
2017-Apr-18 23:58N 48°51' W 123°20'1 2.9
2017-Apr-18 23:30N 48°49' W 123°20'2 3.3
2017-Apr-18 23:00N 48°48' W 123°19'5 9.4
2017-Apr-18 22:30N 48°50' W 123°25'1 0.7
2017-Apr-18 20:26N 48°51' W 123°27'1 1.6
2017-Apr-18 20:00N 48°51' W 123°26'510.7
2017-Apr-18 19:30N 48°48' W 123°19'3 5.7
2017-Apr-18 19:00N 48°51' W 123°20'2 3.6
2017-Apr-18 18:29N 48°52' W 123°18'2 4.1
2017-Apr-18 18:00N 48°54' W 123°17'713.8
2017-Apr-18 17:30N 48°59' W 123°10'2 3.6
2017-Apr-18 17:00N 49°00' W 123°08'0 0.0
2017-Apr-18 16:30N 49°00' W 123°08'713.7
2017-Apr-18 16:00N 48°55' W 123°14'4 6.6
2017-Apr-18 15:25N 48°53' W 123°19'2 4.8
2017-Apr-18 15:00N 48°51' W 123°20'1 2.7
2017-Apr-18 14:30N 48°49' W 123°20'3 3.4
2017-Apr-18 13:30N 48°50' W 123°25'1 2.4
2017-Apr-18 13:00N 48°51' W 123°27'0 0.0
2017-Apr-18 06:50N 48°51' W 123°27'1 3.4
2017-Apr-18 06:30N 48°51' W 123°25'612.5
2017-Apr-18 06:00N 48°54' W 123°17'714.8
2017-Apr-18 05:30N 48°59' W 123°10'2 3.3
2017-Apr-18 05:00N 49°00' W 123°08'4 8.3
2017-Apr-18 04:30N 48°57' W 123°11'714.9
2017-Apr-18 04:01N 48°51' W 123°19'1 1.8
2017-Apr-18 03:30N 48°51' W 123°20'0 0.7
2017-Apr-18 03:00N 48°51' W 123°20'510.5
2017-Apr-18 02:31N 48°55' W 123°16'714.2
2017-Apr-18 02:00N 49°00' W 123°08'0 0.7
2017-Apr-18 01:30N 49°00' W 123°08'2 4.9
2017-Apr-18 01:00N 48°58' W 123°10'815.0
2017-Apr-18 00:30N 48°53' W 123°18'1 1.5
2017-Apr-18 00:00N 48°53' W 123°19'2 3.2
2017-Apr-17 23:23N 48°51' W 123°20'2 4.2
2017-Apr-17 23:00N 48°51' W 123°22'3 6.4
2017-Apr-17 22:30N 48°51' W 123°27'0 0.0
2017-Apr-17 22:00N 48°51' W 123°27'0 0.0
2017-Apr-17 20:40N 48°51' W 123°27'0 0.0
2017-Apr-17 20:28N 48°51' W 123°27'0 0.8
2017-Apr-17 20:00N 48°51' W 123°26'611.4
2017-Apr-17 19:31N 48°48' W 123°19'3 5.3
2017-Apr-17 19:00N 48°50' W 123°20'1 1.6
2017-Apr-17 18:31N 48°51' W 123°21'2 4.3
2017-Apr-17 18:00N 48°53' W 123°18'714.5
2017-Apr-17 17:31N 48°58' W 123°11'3 6.4
2017-Apr-17 17:00N 49°00' W 123°08'0 0.0
2017-Apr-17 16:30N 49°00' W 123°08'510.8
2017-Apr-17 16:00N 48°56' W 123°13'510.8
2017-Apr-17 15:31N 48°53' W 123°19'1 2.9
2017-Apr-17 15:00N 48°52' W 123°21'4 3.8
2017-Apr-17 14:01N 48°48' W 123°19'5 9.7
2017-Apr-17 13:28N 48°51' W 123°26'1 1.2
2017-Apr-17 12:51N 48°51' W 123°27'0 0.0
2017-Apr-17 06:14N 48°51' W 123°27'1 1.8
2017-Apr-17 05:56N 48°51' W 123°26'511.9
2017-Apr-17 05:30N 48°52' W 123°18'  

Dump ship's entire track history